createdAt,value
2023-04-21T00:00:36.752Z,95148.66
2023-04-21T00:03:08.438Z,95143.00
2023-04-21T00:05:42.561Z,95141.63
2023-04-21T00:08:16.475Z,95134.84
2023-04-21T00:10:48.097Z,95134.84
2023-04-21T00:13:19.581Z,95132.81
2023-04-21T00:15:51.401Z,95134.44
2023-04-21T00:18:22.914Z,95140.50
2023-04-21T00:20:54.831Z,95138.63
2023-04-21T00:23:26.371Z,95142.03
2023-04-21T00:25:57.932Z,95137.91
2023-04-21T00:28:29.816Z,95136.72
2023-04-21T00:31:01.364Z,95138.69
2023-04-21T00:33:32.817Z,95130.81
2023-04-21T00:36:04.699Z,95131.56
2023-04-21T00:38:36.471Z,95126.69
2023-04-21T00:41:08.062Z,95127.88
2023-04-21T00:44:06.063Z,95118.75
2023-04-21T00:46:38.663Z,95121.75
2023-04-21T00:49:10.422Z,95117.22
2023-04-21T00:51:42.109Z,95118.38
2023-04-21T00:54:14.267Z,95117.97
2023-04-21T00:56:45.971Z,95110.78
2023-04-21T00:59:17.699Z,95107.06
2023-04-21T01:01:49.501Z,95096.56
2023-04-21T01:04:21.063Z,95092.38
2023-04-21T01:06:54.145Z,95101.00
2023-04-21T01:09:27.037Z,95102.22
2023-04-21T01:12:09.910Z,95113.84
2023-04-21T01:14:41.594Z,95110.78
2023-04-21T01:17:13.209Z,95102.84
2023-04-21T01:19:45.615Z,95099.00
2023-04-21T01:22:17.060Z,95100.59
2023-04-21T01:24:49.487Z,95107.44
2023-04-21T01:27:21.334Z,95105.91
2023-04-21T01:29:53.345Z,95101.84
2023-04-21T01:32:28.960Z,95106.44
2023-04-21T01:35:00.812Z,95101.09
2023-04-21T01:37:33.981Z,95097.38
2023-04-21T01:40:07.794Z,95107.97
2023-04-21T01:42:41.505Z,95104.22
2023-04-21T01:45:13.183Z,95103.44
2023-04-21T01:47:44.756Z,95120.81
2023-04-21T01:50:16.563Z,95114.75
2023-04-21T01:52:48.102Z,95113.63
2023-04-21T01:55:19.752Z,95110.63
2023-04-21T01:57:51.295Z,95111.00
2023-04-21T02:00:22.856Z,95109.88
2023-04-21T02:02:54.475Z,95097.72
2023-04-21T02:05:26.205Z,95104.22
2023-04-21T02:07:57.812Z,95102.34
2023-04-21T02:10:29.299Z,95094.41
2023-04-21T02:13:01.129Z,95099.63
2023-04-21T02:15:33.602Z,95099.63
2023-04-21T02:18:05.360Z,95102.69
2023-04-21T02:20:37.629Z,95095.94
2023-04-21T02:23:10.228Z,95097.47
2023-04-21T02:25:41.697Z,95099.34
2023-04-21T02:28:13.195Z,95091.03
2023-04-21T02:30:44.668Z,95093.34
2023-04-21T02:33:16.251Z,95084.56
2023-04-21T02:35:47.747Z,95092.16
2023-04-21T02:38:19.287Z,95086.00
2023-04-21T02:40:51.054Z,95081.06
2023-04-21T02:43:22.632Z,95094.03
2023-04-21T02:45:54.096Z,95079.25
2023-04-21T02:48:26.750Z,95075.13
2023-04-21T02:50:58.427Z,95079.31
2023-04-21T02:53:30.356Z,95068.22
2023-04-21T02:56:04.636Z,95066.31
2023-04-21T02:58:37.308Z,95067.53
2023-04-21T03:01:08.858Z,95066.69
2023-04-21T03:03:41.966Z,95068.97
2023-04-21T03:06:14.159Z,95072.34
2023-04-21T03:08:45.892Z,95065.50
2023-04-21T03:11:17.389Z,95069.19
2023-04-21T03:13:48.845Z,95077.50
2023-04-21T03:16:20.325Z,95075.97
2023-04-21T03:18:51.819Z,95076.75
2023-04-21T03:21:23.265Z,95086.88
2023-04-21T03:23:54.770Z,95084.28
2023-04-21T03:26:26.248Z,95086.16
2023-04-21T03:28:57.720Z,95090.69
2023-04-21T03:31:29.257Z,95088.47
2023-04-21T03:34:00.833Z,95082.41
2023-04-21T03:36:32.293Z,95081.22
2023-04-21T03:39:13.140Z,95076.69
2023-04-21T03:41:52.203Z,95085.75
2023-04-21T03:44:27.138Z,95081.13
2023-04-21T03:46:58.856Z,95071.75
2023-04-21T03:49:30.723Z,95071.38
2023-04-21T03:52:02.450Z,95058.47
2023-04-21T03:54:34.002Z,95050.84
2023-04-21T03:57:05.570Z,95056.09
2023-04-21T03:59:37.113Z,95059.47
2023-04-21T04:02:08.869Z,95059.38
2023-04-21T04:04:41.023Z,95068.78
2023-04-21T04:07:12.662Z,95083.06
2023-04-21T04:09:44.708Z,95082.31
2023-04-21T04:12:16.195Z,95090.91
2023-04-21T04:14:47.631Z,95088.59
2023-04-21T04:17:19.066Z,95091.16
2023-04-21T04:19:50.558Z,95089.28
2023-04-21T04:22:22.000Z,95085.09
2023-04-21T04:24:53.510Z,95091.78
2023-04-21T04:27:25.191Z,95088.66
2023-04-21T04:29:57.684Z,95098.75
2023-04-21T04:32:29.382Z,95089.63
2023-04-21T04:35:00.989Z,95092.69
2023-04-21T04:37:34.450Z,95083.28
2023-04-21T04:40:07.452Z,95090.53
2023-04-21T04:42:40.101Z,95085.25
2023-04-21T04:45:11.667Z,95087.19
2023-04-21T04:47:43.550Z,95089.06
2023-04-21T04:50:15.091Z,95091.00
2023-04-21T04:52:47.637Z,95089.13
2023-04-21T04:55:19.453Z,95101.69
2023-04-21T04:57:51.770Z,95099.47
2023-04-21T05:00:23.347Z,95104.00
2023-04-21T05:02:55.934Z,95104.06
2023-04-21T05:05:27.585Z,95103.81
2023-04-21T05:07:59.135Z,95106.88
2023-04-21T05:10:30.599Z,95108.81
2023-04-21T05:13:02.095Z,95113.03
2023-04-21T05:15:33.571Z,95101.38
2023-04-21T05:18:05.306Z,95113.13
2023-04-21T05:20:36.855Z,95123.13
2023-04-21T05:23:08.745Z,95119.44
2023-04-21T05:25:40.281Z,95123.28
2023-04-21T05:28:11.854Z,95113.44
2023-04-21T05:30:43.426Z,95114.63
2023-04-21T05:33:17.859Z,95113.63
2023-04-21T05:35:49.488Z,95116.03
2023-04-21T05:38:21.191Z,95113.50
2023-04-21T05:40:55.329Z,95107.56
2023-04-21T05:43:27.105Z,95111.47
2023-04-21T05:45:58.948Z,95121.34
2023-04-21T05:48:30.496Z,95121.09
2023-04-21T05:51:12.283Z,95126.38
2023-04-21T05:53:45.416Z,95125.25
2023-04-21T05:56:16.909Z,95115.56
2023-04-21T05:58:48.401Z,95124.41
2023-04-21T06:01:20.221Z,95119.22
2023-04-21T06:03:51.990Z,95119.81
2023-04-21T06:06:25.671Z,95115.81
2023-04-21T06:08:57.449Z,95109.59
2023-04-21T06:11:28.951Z,95104.66
2023-04-21T06:14:01.775Z,95116.59
2023-04-21T06:16:34.308Z,95101.59
2023-04-21T06:19:05.957Z,95099.88
2023-04-21T06:21:37.464Z,95101.41
2023-04-21T06:24:09.232Z,95101.94
2023-04-21T06:26:40.720Z,95105.31
2023-04-21T06:29:12.222Z,95104.69
2023-04-21T06:31:43.752Z,95093.50
2023-04-21T06:34:15.933Z,95092.19
2023-04-21T06:36:47.452Z,95098.34
2023-04-21T06:39:18.921Z,95097.75
2023-04-21T06:41:50.359Z,95097.75
2023-04-21T06:44:22.010Z,95088.00
2023-04-21T06:46:53.708Z,95086.19
2023-04-21T06:49:25.338Z,95082.88
2023-04-21T06:51:56.852Z,95091.25
2023-04-21T06:54:28.279Z,95081.13
2023-04-21T06:56:59.920Z,95091.09
2023-04-21T06:59:31.574Z,95092.22
2023-04-21T07:02:03.256Z,95091.91
2023-04-21T07:04:34.963Z,95083.19
2023-04-21T07:07:06.692Z,95085.91
2023-04-21T07:09:38.408Z,95080.88
2023-04-21T07:12:09.957Z,95077.91
2023-04-21T07:14:41.624Z,95076.41
2023-04-21T07:17:13.270Z,95088.22
2023-04-21T07:19:44.843Z,95085.53
2023-04-21T07:22:16.400Z,95088.63
2023-04-21T07:24:49.355Z,95086.41
2023-04-21T07:27:21.194Z,95082.66
2023-04-21T07:29:52.757Z,95085.66
2023-04-21T07:32:24.460Z,95083.78
2023-04-21T07:34:56.297Z,95091.03
2023-04-21T07:37:27.808Z,95091.03
2023-04-21T07:39:59.532Z,95091.84
2023-04-21T07:42:31.058Z,95098.00
2023-04-21T07:45:03.573Z,95099.91
2023-04-21T07:47:35.679Z,95094.97
2023-04-21T07:50:07.967Z,95099.94
2023-04-21T07:52:39.483Z,95088.84
2023-04-21T07:55:11.370Z,95093.84
2023-04-21T07:57:42.986Z,95090.47
2023-04-21T08:00:15.473Z,95092.38
2023-04-21T08:02:47.179Z,95093.91
2023-04-21T08:05:18.956Z,95091.59
2023-04-21T08:07:50.765Z,95094.28
2023-04-21T08:13:11.526Z,95093.22
2023-04-21T08:15:43.083Z,95091.03
2023-04-21T08:18:17.209Z,95098.66
2023-04-21T08:20:49.822Z,95098.69
2023-04-21T08:23:21.355Z,95091.47
2023-04-21T08:25:52.923Z,95097.97
2023-04-21T08:28:24.433Z,95099.13
2023-04-21T08:30:55.961Z,95089.59
2023-04-21T08:33:27.963Z,95098.75
2023-04-21T08:36:07.403Z,95089.19
2023-04-21T08:38:43.817Z,95088.81
2023-04-21T08:41:15.503Z,95082.66
2023-04-21T08:43:47.023Z,95084.13
2023-04-21T08:46:19.068Z,95078.38
2023-04-21T08:48:52.230Z,95075.28
2023-04-21T08:51:28.060Z,95079.19
2023-04-21T08:53:59.533Z,95078.31
2023-04-21T08:56:31.054Z,95075.22
2023-04-21T08:59:02.625Z,95076.00
2023-04-21T09:01:34.254Z,95071.28
2023-04-21T09:04:17.499Z,95069.38
2023-04-21T09:06:49.278Z,95075.22
2023-04-21T09:09:21.003Z,95070.53
2023-04-21T09:11:59.883Z,95063.63
2023-04-21T09:14:35.209Z,95069.38
2023-04-21T09:17:06.809Z,95058.09
2023-04-21T09:19:38.681Z,95054.94
2023-04-21T09:22:15.648Z,95064.81
2023-04-21T09:24:58.000Z,95059.03
2023-04-21T09:27:29.611Z,95059.31
2023-04-21T09:30:07.184Z,95056.81
2023-04-21T09:32:40.475Z,95056.16
2023-04-21T09:35:12.267Z,95048.41
2023-04-21T09:37:44.614Z,95046.81
2023-04-21T09:40:18.568Z,95056.75
2023-04-21T09:42:50.610Z,95050.91
2023-04-21T09:45:38.962Z,95049.94
2023-04-21T09:48:16.546Z,95047.91
2023-04-21T09:53:25.450Z,95049.03
2023-04-21T09:55:58.647Z,95049.94
2023-04-21T09:58:37.134Z,95045.13
2023-04-21T10:01:09.795Z,95040.78
2023-04-21T10:03:43.555Z,95036.91
2023-04-21T10:06:15.643Z,95040.63
2023-04-21T10:08:47.939Z,95048.31
2023-04-21T10:11:19.327Z,95041.72
2023-04-21T10:13:51.201Z,95030.44
2023-04-21T10:16:23.309Z,95036.28
2023-04-21T10:18:54.849Z,95035.91
2023-04-21T10:21:26.858Z,95037.91
2023-04-21T10:23:59.220Z,95033.78
2023-04-21T10:26:35.540Z,95033.78
2023-04-21T10:29:09.414Z,95035.97
2023-04-21T10:31:54.819Z,95032.66
2023-04-21T10:34:26.414Z,95030.69
2023-04-21T10:36:58.130Z,95029.28
2023-04-21T10:39:53.292Z,95022.59
2023-04-21T10:42:29.005Z,95028.16
2023-04-21T10:45:05.973Z,95022.00
2023-04-21T10:47:46.500Z,95021.31
2023-04-21T10:50:23.257Z,95021.84
2023-04-21T10:52:56.469Z,95016.31
2023-04-21T10:55:29.595Z,95012.66
2023-04-21T10:58:03.098Z,95014.91
2023-04-21T11:00:35.825Z,95011.28
2023-04-21T11:03:08.478Z,95013.34
2023-04-21T11:05:41.318Z,95013.03
2023-04-21T11:08:14.987Z,95016.25
2023-04-21T11:10:48.559Z,95012.72
2023-04-21T11:13:25.425Z,95003.88
2023-04-21T11:16:06.645Z,95002.19
2023-04-21T11:18:42.298Z,95002.59
2023-04-21T11:21:18.615Z,95000.50
2023-04-21T11:23:55.088Z,94997.81
2023-04-21T11:26:34.482Z,94991.84
2023-04-21T11:29:08.177Z,94990.44
2023-04-21T11:31:42.024Z,94977.00
2023-04-21T11:34:15.459Z,94986.44
2023-04-21T11:36:48.954Z,94992.53
2023-04-21T11:39:22.229Z,94994.44
2023-04-21T11:41:54.616Z,94995.13
2023-04-21T11:44:33.259Z,94992.16
2023-04-21T11:47:19.119Z,94992.47
2023-04-21T11:49:56.177Z,94990.97
2023-04-21T11:52:39.314Z,94985.94
2023-04-21T11:55:16.335Z,94991.72
2023-04-21T11:57:51.179Z,94983.66
2023-04-21T12:00:22.746Z,94983.88
2023-04-21T12:02:56.492Z,94986.69
2023-04-21T12:05:36.062Z,94984.47
2023-04-21T12:08:14.844Z,94979.59
2023-04-21T12:10:47.157Z,94976.03
2023-04-21T12:13:28.606Z,94981.66
2023-04-21T12:16:03.119Z,94972.16
2023-04-21T12:18:36.750Z,94977.25
2023-04-21T12:21:08.443Z,94977.34
2023-04-21T12:23:39.986Z,94976.06
2023-04-21T12:26:12.037Z,94976.25
2023-04-21T12:28:43.432Z,94975.84
2023-04-21T12:31:14.981Z,94976.91
2023-04-21T12:33:46.673Z,94964.06
2023-04-21T12:36:18.308Z,94975.75
2023-04-21T12:38:49.887Z,94972.81
2023-04-21T12:41:21.475Z,94969.34
2023-04-21T12:43:53.025Z,94966.47
2023-04-21T12:46:24.670Z,94971.63
2023-04-21T12:48:56.444Z,94969.75
2023-04-21T12:51:27.974Z,94970.69
2023-04-21T12:53:59.684Z,94966.69
2023-04-21T12:56:31.412Z,94971.94
2023-04-21T12:59:03.032Z,94967.97
2023-04-21T13:01:34.571Z,94973.06
2023-04-21T13:04:08.201Z,94974.19
2023-04-21T13:06:40.062Z,94965.81
2023-04-21T13:09:11.757Z,94964.84
2023-04-21T13:11:43.278Z,94959.97
2023-04-21T13:14:15.980Z,94956.88
2023-04-21T13:16:47.575Z,94952.22
2023-04-21T13:19:19.259Z,94953.69
2023-04-21T13:21:53.849Z,94943.47
2023-04-21T13:24:26.800Z,94951.03
2023-04-21T13:26:59.209Z,94949.81
2023-04-21T13:29:33.994Z,94943.56
2023-04-21T13:32:07.615Z,94942.81
2023-04-21T13:34:39.118Z,94937.63
2023-04-21T13:37:12.531Z,94938.88
2023-04-21T13:39:44.068Z,94943.19
2023-04-21T13:42:15.664Z,94943.66
2023-04-21T13:44:47.254Z,94933.88
2023-04-21T13:47:18.749Z,94942.97
2023-04-21T13:49:51.467Z,94930.31
2023-04-21T13:52:23.099Z,94933.34
2023-04-21T13:54:54.690Z,94926.09
2023-04-21T13:57:26.592Z,94930.50
2023-04-21T13:59:58.337Z,94928.56
2023-04-21T14:02:30.084Z,94932.97
2023-04-21T14:05:02.137Z,94922.22
2023-04-21T14:07:35.789Z,94926.13
2023-04-21T14:10:07.764Z,94917.19
2023-04-21T14:12:39.244Z,94921.88
2023-04-21T14:15:13.103Z,94917.97
2023-04-21T14:17:44.693Z,94914.22
2023-04-21T14:20:16.222Z,94900.59
2023-04-21T14:22:48.108Z,94901.66
2023-04-21T14:25:19.445Z,94893.09
2023-04-21T14:27:51.033Z,94888.38
2023-04-21T14:30:22.583Z,94880.31
2023-04-21T14:32:54.064Z,94877.47
2023-04-21T14:35:25.752Z,94867.00
2023-04-21T14:38:00.595Z,94854.69
2023-04-21T14:40:32.065Z,94861.06
2023-04-21T14:43:03.504Z,94851.91
2023-04-21T14:45:35.637Z,94840.56
2023-04-21T14:48:07.239Z,94838.34
2023-04-21T14:50:38.835Z,94840.63
2023-04-21T14:53:10.954Z,94833.94
2023-04-21T14:55:42.471Z,94833.31
2023-04-21T14:58:13.987Z,94831.25
2023-04-21T15:00:45.885Z,94829.50
2023-04-21T15:03:17.524Z,94833.22
2023-04-21T15:05:49.295Z,94829.75
2023-04-21T15:08:20.992Z,94826.38
2023-04-21T15:10:53.498Z,94823.41
2023-04-21T15:13:25.105Z,94820.88
2023-04-21T15:15:56.706Z,94820.66
2023-04-21T15:18:28.246Z,94828.53
2023-04-21T15:20:59.916Z,94828.53
2023-04-21T15:23:33.657Z,94828.22
2023-04-21T15:26:05.223Z,94827.97
2023-04-21T15:28:36.787Z,94828.47
2023-04-21T15:31:10.063Z,94824.16
2023-04-21T15:33:42.004Z,94816.88
2023-04-21T15:36:13.573Z,94817.84
2023-04-21T15:38:45.192Z,94824.78
2023-04-21T15:41:17.481Z,94822.97
2023-04-21T15:43:49.120Z,94814.56
2023-04-21T15:46:20.722Z,94814.28
2023-04-21T15:48:52.283Z,94815.91
2023-04-21T15:51:23.848Z,94812.31
2023-04-21T15:53:55.627Z,94808.78
2023-04-21T15:56:27.203Z,94807.41
2023-04-21T15:58:58.769Z,94808.75
2023-04-21T16:01:30.409Z,94804.91
2023-04-21T16:04:02.146Z,94807.31
2023-04-21T16:06:34.791Z,94797.31
2023-04-21T16:09:06.524Z,94801.56
2023-04-21T16:11:38.203Z,94803.28
2023-04-21T16:14:09.805Z,94803.97
2023-04-21T16:16:41.554Z,94804.84
2023-04-21T16:19:13.177Z,94810.09
2023-04-21T16:21:44.818Z,94811.56
2023-04-21T16:24:16.610Z,94818.63
2023-04-21T16:26:48.192Z,94819.88
2023-04-21T16:29:19.923Z,94814.88
2023-04-21T16:31:51.493Z,94820.63
2023-04-21T16:34:23.096Z,94814.09
2023-04-21T16:36:54.632Z,94810.44
2023-04-21T16:39:26.221Z,94821.34
2023-04-21T16:41:57.689Z,94818.56
2023-04-21T16:44:29.170Z,94829.59
2023-04-21T16:47:00.813Z,94829.91
2023-04-21T16:49:32.572Z,94825.88
2023-04-21T16:52:03.943Z,94834.44
2023-04-21T16:54:35.624Z,94828.06
2023-04-21T16:57:07.344Z,94837.44
2023-04-21T16:59:38.964Z,94838.94
2023-04-21T17:02:13.107Z,94835.28
2023-04-21T17:04:47.887Z,94842.00
2023-04-21T17:07:19.478Z,94840.41
2023-04-21T17:09:51.341Z,94845.03
2023-04-21T17:12:22.919Z,94843.75
2023-04-21T17:14:54.511Z,94847.88
2023-04-21T17:17:26.197Z,94847.88
2023-04-21T17:19:57.836Z,94852.34
2023-04-21T17:22:29.393Z,94849.72
2023-04-21T17:25:00.923Z,94849.66
2023-04-21T17:27:35.750Z,94844.56
2023-04-21T17:30:11.300Z,94848.72
2023-04-21T17:32:43.782Z,94846.56
2023-04-21T17:35:15.471Z,94844.09
2023-04-21T17:37:47.236Z,94847.00
2023-04-21T17:40:18.872Z,94849.44
2023-04-21T17:42:50.466Z,94861.34
2023-04-21T17:45:22.319Z,94858.09
2023-04-21T17:47:54.067Z,94854.84
2023-04-21T17:50:27.398Z,94852.56
2023-04-21T17:52:58.982Z,94852.13
2023-04-21T17:55:30.918Z,94855.56
2023-04-21T17:58:02.575Z,94858.22
2023-04-21T18:00:34.550Z,94853.56
2023-04-21T18:03:06.600Z,94853.56
2023-04-21T18:05:38.340Z,94863.53
2023-04-21T18:08:10.025Z,94871.03
2023-04-21T18:10:41.920Z,94878.31
2023-04-21T18:13:13.495Z,94879.16
2023-04-21T18:15:45.362Z,94877.50
2023-04-21T18:18:17.821Z,94883.56
2023-04-21T18:20:49.327Z,94888.03
2023-04-21T18:23:21.416Z,94891.81
2023-04-21T18:25:52.919Z,94898.63
2023-04-21T18:28:24.399Z,94899.13
2023-04-21T18:30:57.730Z,94900.19
2023-04-21T18:33:31.728Z,94905.41
2023-04-21T18:36:03.441Z,94910.19
2023-04-21T18:38:39.414Z,94909.09
2023-04-21T18:41:11.026Z,94918.50
2023-04-21T18:43:42.669Z,94915.94
2023-04-21T18:46:18.160Z,94928.41
2023-04-21T18:48:50.179Z,94929.00
2023-04-21T18:51:21.783Z,94934.56
2023-04-21T18:53:53.285Z,94936.72
2023-04-21T18:56:26.890Z,94942.22
2023-04-21T18:58:59.165Z,94945.84
2023-04-21T19:01:31.069Z,94958.69
2023-04-21T19:04:02.890Z,94966.94
2023-04-21T19:06:34.939Z,94979.69
2023-04-21T19:09:06.624Z,95005.47
2023-04-21T19:11:38.143Z,95011.19
2023-04-21T19:14:09.693Z,95005.38
2023-04-21T19:16:43.370Z,94999.41
2023-04-21T19:19:14.931Z,95008.78
2023-04-21T19:21:46.459Z,95022.06
2023-04-21T19:24:18.009Z,95026.44
2023-04-21T19:26:49.530Z,95023.78
2023-04-21T19:29:21.225Z,95024.66
2023-04-21T19:31:53.436Z,95030.03
2023-04-21T19:34:25.186Z,95033.41
2023-04-21T19:36:56.803Z,95039.66
2023-04-21T19:39:28.565Z,95032.47
2023-04-21T19:42:01.131Z,95041.03
2023-04-21T19:44:33.905Z,95042.59
2023-04-21T19:47:05.695Z,95039.25
2023-04-21T19:49:37.434Z,95033.13
2023-04-21T19:52:09.156Z,95031.63
2023-04-21T19:54:41.281Z,95030.88
2023-04-21T19:57:16.055Z,95031.34
2023-04-21T19:59:49.041Z,95032.09
2023-04-21T20:02:20.868Z,95034.47
2023-04-21T20:04:53.647Z,95028.75
2023-04-21T20:07:26.311Z,95023.72
2023-04-21T20:09:57.859Z,95019.91
2023-04-21T20:12:30.605Z,95013.44
2023-04-21T20:15:02.917Z,95010.72
2023-04-21T20:17:34.557Z,95021.88
2023-04-21T20:20:07.112Z,95022.63
2023-04-21T20:22:38.798Z,95023.78
2023-04-21T20:25:10.785Z,95018.47
2023-04-21T20:27:42.454Z,95017.28
2023-04-21T20:30:14.192Z,95004.66
2023-04-21T20:32:45.897Z,95009.97
2023-04-21T20:35:17.866Z,95000.41
2023-04-21T20:37:50.359Z,95003.06
2023-04-21T20:40:22.254Z,94999.19
2023-04-21T20:42:53.818Z,95007.22
2023-04-21T20:45:26.233Z,95006.06
2023-04-21T20:47:57.898Z,95007.75
2023-04-21T20:50:29.588Z,94996.28
2023-04-21T20:53:02.129Z,95005.63
2023-04-21T20:55:33.740Z,94994.88
2023-04-21T20:58:05.495Z,95004.44
2023-04-21T21:00:37.378Z,95004.41
2023-04-21T21:03:11.602Z,94993.69
2023-04-21T21:05:43.416Z,94989.13
2023-04-21T21:08:15.288Z,94986.06
2023-04-21T21:10:46.802Z,94983.78
2023-04-21T21:13:18.387Z,94984.94
2023-04-21T21:15:51.287Z,94975.75
2023-04-21T21:18:22.850Z,94979.22
2023-04-21T21:20:54.578Z,94980.75
2023-04-21T21:23:26.282Z,94980.38
2023-04-21T21:25:58.585Z,94986.91
2023-04-21T21:28:30.445Z,94979.28
2023-04-21T21:31:02.202Z,94982.00
2023-04-21T21:33:33.759Z,94984.69
2023-04-21T21:36:05.746Z,94984.28
2023-04-21T21:38:37.430Z,94986.22
2023-04-21T21:41:11.567Z,94981.28
2023-04-21T21:43:43.173Z,94986.63
2023-04-21T21:46:14.846Z,94990.88
2023-04-21T21:48:46.517Z,94985.16
2023-04-21T21:51:18.123Z,94994.38
2023-04-21T21:53:49.689Z,94998.97
2023-04-21T21:56:21.990Z,94994.00
2023-04-21T21:58:53.560Z,94998.22
2023-04-21T22:01:25.241Z,94991.72
2023-04-21T22:03:57.044Z,94996.34
2023-04-21T22:06:29.074Z,94998.22
2023-04-21T22:09:01.052Z,95001.31
2023-04-21T22:11:32.676Z,94999.41
2023-04-21T22:14:18.606Z,95002.09
2023-04-21T22:16:57.414Z,95009.00
2023-04-21T22:19:29.322Z,95005.19
2023-04-21T22:22:00.960Z,94999.09
2023-04-21T22:24:32.617Z,94994.13
2023-04-21T22:27:04.535Z,94994.94
2023-04-21T22:29:36.575Z,94992.63
2023-04-21T22:32:09.309Z,94991.50
2023-04-21T22:34:40.896Z,95000.28
2023-04-21T22:37:12.576Z,94994.91
2023-04-21T22:39:44.157Z,94997.97
2023-04-21T22:42:15.839Z,94983.13
2023-04-21T22:44:47.456Z,94995.34
2023-04-21T22:47:19.359Z,94989.22
2023-04-21T22:49:51.327Z,94997.19
2023-04-21T22:52:23.020Z,95003.31
2023-04-21T22:54:54.700Z,95000.66
2023-04-21T22:57:27.029Z,95000.63
2023-04-21T22:59:58.570Z,94997.59
2023-04-21T23:02:30.393Z,94992.25
2023-04-21T23:05:02.236Z,94998.34
2023-04-21T23:07:33.929Z,94994.16
2023-04-21T23:10:05.955Z,94995.69
2023-04-21T23:12:37.610Z,94988.06
2023-04-21T23:15:09.452Z,94998.34
2023-04-21T23:17:42.767Z,94996.06
2023-04-21T23:20:15.356Z,94995.28
2023-04-21T23:22:47.017Z,94988.78
2023-04-21T23:25:19.665Z,94989.94
2023-04-21T23:27:51.325Z,94997.94
2023-04-21T23:30:22.935Z,95009.38
2023-04-21T23:32:54.843Z,95000.63
2023-04-21T23:35:26.832Z,95010.91
2023-04-21T23:37:58.451Z,95013.19
2023-04-21T23:40:30.200Z,95016.22
2023-04-21T23:43:01.813Z,95011.66
2023-04-21T23:45:33.473Z,95005.53
2023-04-21T23:48:05.170Z,95005.16
2023-04-21T23:50:36.771Z,95014.69
2023-04-21T23:53:08.279Z,95012.78
2023-04-21T23:55:39.900Z,95007.81
2023-04-21T23:58:11.968Z,95006.28
